createdAt,value
2023-04-16T00:00:55.120Z,24.98
2023-04-16T00:03:21.654Z,29.65
2023-04-16T00:05:48.310Z,31.25
2023-04-16T00:08:14.835Z,24.35
2023-04-16T00:10:41.356Z,26.67
2023-04-16T00:13:07.951Z,30.35
2023-04-16T00:15:34.423Z,27.42
2023-04-16T00:18:01.073Z,32.35
2023-04-16T00:20:27.585Z,29.25
2023-04-16T00:22:54.020Z,22.73
2023-04-16T00:25:20.506Z,24.60
2023-04-16T00:27:46.963Z,37.15
2023-04-16T00:30:13.516Z,26.33
2023-04-16T00:32:39.875Z,23.17
2023-04-16T00:35:06.882Z,32.88
2023-04-16T00:37:33.256Z,30.45
2023-04-16T00:39:59.789Z,32.35
2023-04-16T00:42:26.384Z,31.85
2023-04-16T00:44:52.739Z,34.25
2023-04-16T00:47:21.674Z,29.77
2023-04-16T00:49:48.271Z,33.83
2023-04-16T00:52:14.922Z,28.42
2023-04-16T00:54:41.695Z,25.17
2023-04-16T00:57:08.092Z,37.65
2023-04-16T00:59:34.459Z,25.00
2023-04-16T01:02:00.938Z,33.85
2023-04-16T01:04:27.440Z,27.20
2023-04-16T01:06:53.947Z,31.10
2023-04-16T01:09:20.287Z,24.42
2023-04-16T01:11:46.701Z,40.40
2023-04-16T01:14:13.064Z,33.28
2023-04-16T01:16:39.400Z,31.42
2023-04-16T01:19:05.739Z,41.30
2023-04-16T01:21:32.160Z,32.67
2023-04-16T01:24:02.628Z,33.97
2023-04-16T01:26:29.005Z,32.63
2023-04-16T01:28:55.378Z,39.90
2023-04-16T01:31:21.790Z,38.63
2023-04-16T01:33:48.169Z,22.65
2023-04-16T01:36:14.575Z,31.92
2023-04-16T01:38:40.994Z,34.88
2023-04-16T01:41:07.423Z,27.77
2023-04-16T01:43:33.858Z,37.40
2023-04-16T01:46:15.246Z,37.22
2023-04-16T01:48:41.866Z,30.25
2023-04-16T01:51:08.367Z,36.28
2023-04-16T01:53:36.933Z,45.03
2023-04-16T01:56:03.886Z,37.70
2023-04-16T01:58:31.129Z,46.28
2023-04-16T02:00:57.703Z,34.22
2023-04-16T02:03:24.472Z,44.25
2023-04-16T02:05:51.556Z,39.63
2023-04-16T02:08:18.224Z,54.95
2023-04-16T02:10:49.926Z,37.25
2023-04-16T02:13:17.049Z,38.50
2023-04-16T02:15:47.469Z,23.73
2023-04-16T02:18:14.072Z,38.13
2023-04-16T02:20:41.637Z,43.75
2023-04-16T02:23:08.433Z,39.40
2023-04-16T02:25:41.890Z,47.53
2023-04-16T02:28:13.131Z,42.45
2023-04-16T02:30:40.687Z,35.70
2023-04-16T02:33:09.569Z,42.65
2023-04-16T02:35:36.385Z,44.35
2023-04-16T02:38:03.502Z,38.25
2023-04-16T02:40:30.821Z,31.80
2023-04-16T02:42:57.644Z,46.88
2023-04-16T02:45:24.756Z,44.22
2023-04-16T02:47:51.704Z,42.15
2023-04-16T02:50:18.379Z,45.10
2023-04-16T02:52:44.751Z,46.20
2023-04-16T02:55:11.371Z,40.30
2023-04-16T02:57:37.739Z,26.55
2023-04-16T03:00:11.090Z,41.13
2023-04-16T03:02:37.491Z,44.20
2023-04-16T03:05:04.202Z,48.17
2023-04-16T03:07:30.630Z,45.20
2023-04-16T03:09:56.992Z,48.42
2023-04-16T03:12:23.416Z,49.78
2023-04-16T03:14:51.160Z,44.03
2023-04-16T03:17:17.659Z,58.33
2023-04-16T03:19:43.988Z,47.40
2023-04-16T03:22:10.333Z,45.60
2023-04-16T03:24:36.675Z,47.60
2023-04-16T03:27:02.956Z,42.03
2023-04-16T03:29:29.290Z,49.65
2023-04-16T03:31:55.572Z,53.70
2023-04-16T03:34:21.924Z,53.25
2023-04-16T03:36:48.275Z,51.40
2023-04-16T03:39:14.575Z,53.05
2023-04-16T03:41:40.936Z,45.97
2023-04-16T03:44:07.332Z,43.85
2023-04-16T03:46:33.771Z,43.97
2023-04-16T03:49:00.114Z,43.47
2023-04-16T03:51:26.554Z,21.98
2023-04-16T03:53:52.927Z,34.58
2023-04-16T03:56:19.262Z,31.52
2023-04-16T03:58:45.612Z,35.40
2023-04-16T04:01:11.962Z,36.90
2023-04-16T04:03:38.371Z,37.30
2023-04-16T04:06:08.615Z,37.75
2023-04-16T04:08:35.125Z,36.78
2023-04-16T04:11:01.463Z,29.48
2023-04-16T04:13:27.820Z,40.60
2023-04-16T04:15:54.219Z,45.17
2023-04-16T04:18:20.627Z,46.63
2023-04-16T04:20:46.990Z,40.40
2023-04-16T04:23:13.339Z,40.80
2023-04-16T04:25:39.626Z,39.13
2023-04-16T04:28:05.938Z,38.47
2023-04-16T04:30:32.281Z,38.50
2023-04-16T04:32:58.650Z,42.72
2023-04-16T04:35:25.036Z,35.78
2023-04-16T04:37:51.356Z,41.85
2023-04-16T04:40:17.737Z,36.13
2023-04-16T04:42:44.156Z,44.78
2023-04-16T04:45:10.733Z,37.83
2023-04-16T04:47:37.097Z,37.85
2023-04-16T04:50:03.889Z,41.03
2023-04-16T04:52:30.252Z,33.95
2023-04-16T04:54:56.853Z,36.50
2023-04-16T04:57:23.284Z,47.17
2023-04-16T04:59:49.706Z,38.28
2023-04-16T05:02:16.178Z,42.58
2023-04-16T05:04:42.623Z,32.72
2023-04-16T05:07:09.008Z,33.92
2023-04-16T05:09:35.353Z,36.97
2023-04-16T05:12:01.792Z,41.35
2023-04-16T05:14:28.183Z,38.25
2023-04-16T05:16:54.554Z,41.95
2023-04-16T05:19:20.931Z,28.48
2023-04-16T05:21:47.267Z,42.13
2023-04-16T05:24:15.014Z,40.00
2023-04-16T05:26:41.485Z,42.38
2023-04-16T05:29:07.961Z,44.20
2023-04-16T05:31:34.515Z,31.30
2023-04-16T05:34:00.855Z,46.20
2023-04-16T05:36:27.195Z,31.70
2023-04-16T05:38:53.512Z,50.33
2023-04-16T05:41:19.812Z,51.80
2023-04-16T05:43:46.155Z,23.92
2023-04-16T05:46:12.575Z,34.28
2023-04-16T05:48:38.941Z,43.75
2023-04-16T05:51:05.367Z,48.50
2023-04-16T05:53:31.692Z,43.58
2023-04-16T05:55:58.043Z,38.22
2023-04-16T05:58:24.400Z,42.80
2023-04-16T06:00:51.049Z,47.38
2023-04-16T06:03:17.525Z,23.75
2023-04-16T06:05:44.728Z,43.83
2023-04-16T06:08:11.140Z,40.80
2023-04-16T06:10:37.746Z,51.65
2023-04-16T06:13:04.109Z,64.60
2023-04-16T06:15:30.503Z,58.15
2023-04-16T06:18:00.277Z,52.17
2023-04-16T06:20:27.214Z,61.47
2023-04-16T06:22:53.569Z,54.47
2023-04-16T06:25:19.915Z,59.72
2023-04-16T06:27:46.256Z,34.60
2023-04-16T06:30:14.019Z,38.20
2023-04-16T06:32:40.754Z,45.42
2023-04-16T06:35:07.459Z,42.22
2023-04-16T06:37:33.809Z,40.08
2023-04-16T06:40:00.209Z,43.65
2023-04-16T06:42:26.563Z,38.65
2023-04-16T06:44:52.871Z,28.70
2023-04-16T06:47:19.309Z,38.10
2023-04-16T06:49:45.609Z,41.83
2023-04-16T06:52:12.059Z,47.78
2023-04-16T06:54:39.730Z,44.38
2023-04-16T06:57:06.142Z,52.97
2023-04-16T06:59:32.475Z,52.03
2023-04-16T07:01:58.964Z,49.53
2023-04-16T07:04:25.491Z,38.20
2023-04-16T07:06:51.872Z,47.70
2023-04-16T07:09:18.204Z,50.67
2023-04-16T07:11:44.716Z,54.38
2023-04-16T07:14:11.100Z,45.63
2023-04-16T07:16:37.589Z,38.63
2023-04-16T07:19:04.112Z,41.55
2023-04-16T07:21:30.426Z,31.55
2023-04-16T07:23:56.759Z,32.25
2023-04-16T07:26:23.146Z,36.65
2023-04-16T07:28:49.492Z,44.40
2023-04-16T07:31:15.802Z,40.13
2023-04-16T07:33:42.122Z,40.67
2023-04-16T07:36:08.442Z,47.10
2023-04-16T07:38:34.758Z,38.03
2023-04-16T07:41:01.151Z,41.35
2023-04-16T07:43:27.501Z,39.22
2023-04-16T07:45:53.914Z,43.25
2023-04-16T07:48:20.400Z,36.75
2023-04-16T07:50:46.762Z,41.42
2023-04-16T07:53:13.114Z,35.17
2023-04-16T07:55:39.448Z,32.22
2023-04-16T07:58:05.808Z,32.50
2023-04-16T08:00:32.208Z,35.40
2023-04-16T08:02:58.772Z,44.00
2023-04-16T08:05:25.221Z,45.28
2023-04-16T08:07:51.610Z,36.38
2023-04-16T08:10:18.013Z,39.47
2023-04-16T08:12:44.348Z,38.20
2023-04-16T08:15:10.934Z,42.85
2023-04-16T08:17:37.393Z,43.38
2023-04-16T08:20:04.473Z,44.58
2023-04-16T08:22:30.881Z,37.90
2023-04-16T08:24:57.354Z,44.53
2023-04-16T08:27:23.665Z,37.92
2023-04-16T08:29:50.050Z,42.15
2023-04-16T08:32:16.421Z,33.53
2023-04-16T08:34:42.900Z,30.08
2023-04-16T08:37:09.644Z,24.83
2023-04-16T08:39:36.029Z,30.98
2023-04-16T08:42:05.672Z,34.38
2023-04-16T08:44:37.231Z,30.63
2023-04-16T08:47:08.006Z,35.95
2023-04-16T08:49:36.273Z,44.63
2023-04-16T08:52:06.207Z,35.17
2023-04-16T08:54:57.263Z,36.10
2023-04-16T08:57:26.601Z,32.53
2023-04-16T08:59:54.699Z,36.10
2023-04-16T09:02:21.244Z,37.15
2023-04-16T09:04:49.746Z,37.45
2023-04-16T09:07:17.562Z,34.15
2023-04-16T09:09:44.105Z,34.70
2023-04-16T09:12:10.479Z,32.88
2023-04-16T09:14:36.799Z,30.85
2023-04-16T09:17:04.078Z,34.10
2023-04-16T09:19:30.446Z,31.55
2023-04-16T09:21:56.830Z,35.20
2023-04-16T09:24:23.679Z,30.58
2023-04-16T09:26:50.831Z,31.42
2023-04-16T09:29:40.451Z,35.25
2023-04-16T09:32:09.176Z,33.83
2023-04-16T09:34:54.119Z,34.20
2023-04-16T09:37:20.601Z,32.25
2023-04-16T09:39:55.704Z,30.55
2023-04-16T09:42:24.795Z,28.63
2023-04-16T09:44:51.103Z,29.02
2023-04-16T09:47:17.713Z,31.33
2023-04-16T09:49:44.423Z,27.85
2023-04-16T09:52:15.445Z,31.27
2023-04-16T09:54:52.859Z,35.15
2023-04-16T09:57:23.784Z,27.70
2023-04-16T10:00:03.708Z,30.70
2023-04-16T10:02:31.099Z,24.90
2023-04-16T10:04:57.633Z,35.22
2023-04-16T10:07:29.001Z,29.33
2023-04-16T10:09:55.627Z,32.35
2023-04-16T10:12:22.197Z,26.48
2023-04-16T10:14:50.102Z,27.27
2023-04-16T10:17:17.174Z,28.33
2023-04-16T10:19:44.234Z,28.55
2023-04-16T10:22:11.549Z,27.02
2023-04-16T10:24:38.705Z,27.92
2023-04-16T10:27:05.029Z,22.90
2023-04-16T10:29:32.766Z,28.02
2023-04-16T10:31:59.762Z,27.45
2023-04-16T10:34:27.026Z,30.75
2023-04-16T10:36:54.390Z,33.83
2023-04-16T10:39:23.280Z,28.88
2023-04-16T10:41:50.696Z,29.70
2023-04-16T10:44:19.052Z,26.80
2023-04-16T10:46:49.222Z,28.08
2023-04-16T10:49:17.898Z,24.02
2023-04-16T10:51:52.358Z,26.88
2023-04-16T10:54:18.629Z,25.92
2023-04-16T10:56:46.712Z,25.52
2023-04-16T10:59:13.455Z,27.08
2023-04-16T11:01:45.005Z,24.23
2023-04-16T11:04:20.528Z,24.50
2023-04-16T11:07:11.562Z,24.67
2023-04-16T11:09:44.062Z,26.52
2023-04-16T11:12:13.209Z,24.70
2023-04-16T11:14:41.194Z,26.63
2023-04-16T11:17:08.043Z,22.00
2023-04-16T11:19:38.022Z,27.05
2023-04-16T11:22:05.009Z,27.75
2023-04-16T11:24:32.696Z,23.85
2023-04-16T11:26:59.240Z,27.80
2023-04-16T11:29:25.671Z,26.83
2023-04-16T11:31:53.226Z,25.40
2023-04-16T11:34:20.017Z,24.05
2023-04-16T11:36:47.927Z,26.83
2023-04-16T11:39:14.480Z,28.95
2023-04-16T11:41:43.798Z,24.77
2023-04-16T11:44:21.175Z,29.45
2023-04-16T11:46:48.129Z,22.92
2023-04-16T11:49:14.541Z,23.33
2023-04-16T11:51:45.572Z,21.63
2023-04-16T11:54:22.476Z,29.52
2023-04-16T11:56:50.963Z,24.17
2023-04-16T11:59:19.645Z,24.50
2023-04-16T12:01:48.653Z,27.83
2023-04-16T12:04:16.473Z,26.65
2023-04-16T12:07:05.486Z,25.05
2023-04-16T12:09:32.171Z,25.40
2023-04-16T12:11:58.498Z,20.88
2023-04-16T12:14:24.852Z,26.83
2023-04-16T12:16:51.257Z,25.40
2023-04-16T12:19:18.060Z,22.80
2023-04-16T12:21:46.179Z,23.45
2023-04-16T12:24:14.548Z,23.35
2023-04-16T12:26:43.371Z,25.95
2023-04-16T12:29:21.312Z,23.65
2023-04-16T12:34:15.226Z,25.15
2023-04-16T12:36:42.603Z,22.92
2023-04-16T12:39:09.602Z,28.98
2023-04-16T12:41:41.108Z,25.52
2023-04-16T12:44:15.597Z,24.48
2023-04-16T12:46:43.305Z,24.17
2023-04-16T12:49:11.114Z,25.25
2023-04-16T12:51:38.970Z,23.25
2023-04-16T12:54:06.773Z,24.27
2023-04-16T12:56:33.452Z,23.05
2023-04-16T12:58:59.804Z,22.23
2023-04-16T13:01:26.181Z,29.10
2023-04-16T13:03:53.020Z,27.75
2023-04-16T13:06:20.054Z,20.83
2023-04-16T13:08:46.429Z,22.33
2023-04-16T13:11:13.017Z,21.83
2023-04-16T13:13:39.473Z,22.38
2023-04-16T13:16:05.876Z,22.20
2023-04-16T13:18:32.779Z,24.38
2023-04-16T13:20:59.181Z,22.08
2023-04-16T13:23:25.665Z,20.95
2023-04-16T13:25:52.004Z,21.25
2023-04-16T13:28:18.351Z,22.55
2023-04-16T13:30:45.784Z,23.48
2023-04-16T13:33:12.183Z,17.90
2023-04-16T13:35:38.986Z,22.05
2023-04-16T13:38:05.433Z,26.02
2023-04-16T13:40:31.821Z,21.95
2023-04-16T13:42:58.127Z,24.08
2023-04-16T13:45:24.583Z,26.33
2023-04-16T13:47:50.976Z,23.05
2023-04-16T13:50:17.438Z,21.02
2023-04-16T13:52:43.737Z,22.67
2023-04-16T13:55:10.198Z,23.65
2023-04-16T13:57:36.614Z,22.73
2023-04-16T14:00:03.180Z,24.25
2023-04-16T14:02:29.644Z,21.98
2023-04-16T14:04:56.034Z,22.70
2023-04-16T14:07:22.341Z,22.92
2023-04-16T14:09:48.680Z,20.08
2023-04-16T14:12:15.030Z,20.75
2023-04-16T14:14:41.416Z,25.38
2023-04-16T14:17:07.784Z,23.67
2023-04-16T14:19:34.120Z,22.02
2023-04-16T14:22:00.505Z,18.13
2023-04-16T14:24:26.841Z,20.25
2023-04-16T14:26:53.170Z,26.50
2023-04-16T14:29:19.542Z,20.70
2023-04-16T14:31:45.959Z,22.30
2023-04-16T14:34:12.289Z,20.73
2023-04-16T14:36:38.629Z,23.55
2023-04-16T14:39:05.003Z,22.27
2023-04-16T14:41:31.412Z,21.23
2023-04-16T14:43:59.074Z,20.15
2023-04-16T14:46:25.469Z,20.88
2023-04-16T14:48:51.838Z,22.33
2023-04-16T14:51:18.335Z,20.23
2023-04-16T14:53:44.680Z,18.15
2023-04-16T14:56:11.199Z,20.70
2023-04-16T14:58:39.283Z,22.33
2023-04-16T15:01:06.893Z,20.65
2023-04-16T15:03:34.721Z,21.90
2023-04-16T15:06:01.678Z,20.35
2023-04-16T15:08:28.035Z,23.40
2023-04-16T15:10:54.351Z,25.73
2023-04-16T15:13:20.665Z,22.65
2023-04-16T15:15:47.294Z,24.08
2023-04-16T15:18:13.671Z,23.27
2023-04-16T15:20:40.068Z,19.88
2023-04-16T15:23:06.399Z,19.27
2023-04-16T15:25:32.875Z,22.48
2023-04-16T15:27:59.230Z,23.17
2023-04-16T15:30:25.660Z,23.80
2023-04-16T15:32:51.978Z,22.55
2023-04-16T15:35:18.372Z,23.92
2023-04-16T15:37:44.750Z,23.88
2023-04-16T15:40:11.225Z,22.02
2023-04-16T15:42:37.824Z,22.52
2023-04-16T15:45:04.533Z,22.23
2023-04-16T15:47:30.847Z,24.00
2023-04-16T15:49:57.280Z,20.75
2023-04-16T15:52:23.699Z,21.45
2023-04-16T15:54:50.133Z,20.60
2023-04-16T15:57:16.533Z,22.10
2023-04-16T15:59:46.193Z,23.75
2023-04-16T16:02:19.415Z,22.67
2023-04-16T16:04:45.981Z,27.10
2023-04-16T16:07:12.713Z,26.17
2023-04-16T16:09:39.023Z,22.33
2023-04-16T16:12:05.579Z,23.48
2023-04-16T16:14:33.013Z,21.90
2023-04-16T16:16:59.392Z,26.23
2023-04-16T16:19:25.683Z,24.65
2023-04-16T16:21:52.027Z,27.85
2023-04-16T16:24:18.410Z,22.38
2023-04-16T16:26:44.760Z,24.15
2023-04-16T16:29:11.351Z,21.83
2023-04-16T16:31:37.973Z,24.38
2023-04-16T16:34:04.441Z,21.85
2023-04-16T16:36:30.813Z,22.27
2023-04-16T16:38:57.174Z,23.60
2023-04-16T16:41:23.539Z,23.90
2023-04-16T16:43:49.871Z,20.10
2023-04-16T16:46:16.280Z,22.30
2023-04-16T16:48:42.604Z,26.30
2023-04-16T16:51:09.992Z,24.70
2023-04-16T16:53:36.332Z,26.60
2023-04-16T16:56:02.674Z,25.50
2023-04-16T16:58:29.007Z,25.40
2023-04-16T17:00:55.363Z,24.77
2023-04-16T17:03:21.759Z,24.95
2023-04-16T17:05:48.166Z,25.98
2023-04-16T17:08:14.504Z,25.88
2023-04-16T17:10:40.779Z,25.35
2023-04-16T17:13:07.142Z,24.70
2023-04-16T17:15:33.498Z,25.70
2023-04-16T17:17:59.838Z,26.60
2023-04-16T17:20:26.233Z,23.35
2023-04-16T17:22:52.548Z,24.88
2023-04-16T17:25:18.878Z,28.40
2023-04-16T17:27:45.197Z,27.75
2023-04-16T17:30:11.738Z,26.35
2023-04-16T17:32:38.123Z,26.00
2023-04-16T17:35:04.929Z,24.98
2023-04-16T17:37:31.360Z,25.13
2023-04-16T17:39:57.715Z,28.95
2023-04-16T17:42:24.025Z,24.40
2023-04-16T17:44:50.381Z,25.00
2023-04-16T17:47:16.768Z,25.10
2023-04-16T17:49:43.140Z,28.88
2023-04-16T17:52:09.464Z,26.58
2023-04-16T17:54:35.778Z,26.63
2023-04-16T17:57:02.207Z,28.05
2023-04-16T17:59:28.576Z,29.17
2023-04-16T18:01:54.983Z,26.73
2023-04-16T18:04:21.620Z,25.67
2023-04-16T18:06:48.031Z,24.90
2023-04-16T18:09:14.348Z,29.02
2023-04-16T18:11:40.720Z,30.60
2023-04-16T18:14:07.072Z,30.27
2023-04-16T18:16:33.412Z,28.55
2023-04-16T18:18:59.747Z,29.00
2023-04-16T18:21:26.092Z,30.80
2023-04-16T18:23:52.415Z,34.47
2023-04-16T18:26:21.120Z,30.52
2023-04-16T18:28:49.224Z,31.77
2023-04-16T18:31:15.601Z,31.48
2023-04-16T18:33:55.545Z,29.30
2023-04-16T18:36:23.460Z,34.30
2023-04-16T18:39:00.270Z,31.02
2023-04-16T18:41:27.818Z,30.02
2023-04-16T18:43:54.156Z,32.38
2023-04-16T18:46:20.560Z,32.78
2023-04-16T18:48:46.902Z,30.70
2023-04-16T18:51:15.440Z,34.50
2023-04-16T18:53:43.263Z,29.58
2023-04-16T18:56:09.801Z,32.05
2023-04-16T18:58:36.133Z,34.08
2023-04-16T19:01:02.598Z,31.65
2023-04-16T19:03:29.143Z,31.65
2023-04-16T19:05:55.738Z,33.28
2023-04-16T19:08:22.116Z,33.00
2023-04-16T19:10:49.710Z,33.75
2023-04-16T19:13:16.406Z,36.30
2023-04-16T19:15:42.818Z,35.03
2023-04-16T19:18:09.133Z,31.63
2023-04-16T19:20:36.814Z,36.47
2023-04-16T19:23:06.576Z,28.45
2023-04-16T19:25:32.970Z,32.85
2023-04-16T19:27:59.432Z,31.30
2023-04-16T19:30:25.850Z,30.67
2023-04-16T19:32:54.676Z,31.25
2023-04-16T19:35:21.910Z,34.33
2023-04-16T19:37:48.302Z,34.88
2023-04-16T19:40:14.691Z,31.00
2023-04-16T19:42:41.054Z,26.38
2023-04-16T19:45:07.735Z,28.85
2023-04-16T19:47:34.070Z,34.63
2023-04-16T19:50:00.440Z,34.08
2023-04-16T19:52:26.800Z,35.40
2023-04-16T19:54:53.109Z,33.10
2023-04-16T19:57:19.420Z,32.47
2023-04-16T19:59:45.737Z,36.58
2023-04-16T20:02:12.103Z,33.95
2023-04-16T20:04:38.495Z,30.50
2023-04-16T20:07:04.846Z,29.45
2023-04-16T20:09:31.177Z,27.85
2023-04-16T20:11:57.511Z,27.88
2023-04-16T20:14:23.886Z,18.10
2023-04-16T20:16:50.244Z,21.70
2023-04-16T20:19:17.094Z,23.38
2023-04-16T20:21:43.595Z,17.52
2023-04-16T20:24:09.963Z,27.00
2023-04-16T20:26:36.384Z,30.65
2023-04-16T20:29:02.924Z,26.73
2023-04-16T20:31:29.335Z,28.67
2023-04-16T20:33:55.748Z,27.10
2023-04-16T20:36:22.130Z,34.08
2023-04-16T20:38:48.438Z,27.05
2023-04-16T20:41:14.784Z,21.65
2023-04-16T20:43:41.231Z,30.92
2023-04-16T20:46:08.606Z,33.50
2023-04-16T20:48:35.089Z,28.95
2023-04-16T20:51:02.758Z,31.80
2023-04-16T20:53:29.778Z,31.55
2023-04-16T20:55:56.091Z,29.75
2023-04-16T20:58:22.399Z,31.70
2023-04-16T21:00:52.609Z,39.88
2023-04-16T21:03:19.979Z,36.10
2023-04-16T21:05:49.729Z,39.80
2023-04-16T21:08:20.120Z,34.58
2023-04-16T21:10:46.848Z,38.53
2023-04-16T21:13:13.466Z,35.33
2023-04-16T21:15:41.243Z,35.85
2023-04-16T21:18:08.321Z,33.28
2023-04-16T21:20:34.895Z,38.15
2023-04-16T21:23:02.413Z,37.97
2023-04-16T21:25:29.414Z,36.80
2023-04-16T21:27:55.971Z,36.15
2023-04-16T21:30:22.376Z,35.90
2023-04-16T21:32:49.016Z,36.10
2023-04-16T21:35:15.360Z,31.75
2023-04-16T21:37:41.724Z,34.88
2023-04-16T21:40:08.366Z,37.63
2023-04-16T21:42:35.542Z,38.63
2023-04-16T21:45:01.904Z,43.03
2023-04-16T21:47:28.244Z,36.33
2023-04-16T21:49:54.597Z,39.80
2023-04-16T21:52:21.002Z,40.30
2023-04-16T21:54:47.560Z,36.92
2023-04-16T21:57:13.862Z,40.00
2023-04-16T21:59:40.539Z,36.65
2023-04-16T22:02:06.918Z,34.85
2023-04-16T22:04:33.320Z,27.90
2023-04-16T22:06:59.653Z,30.83
2023-04-16T22:09:25.982Z,35.38
2023-04-16T22:11:52.292Z,36.78
2023-04-16T22:14:18.644Z,39.40
2023-04-16T22:16:45.040Z,32.05
2023-04-16T22:19:11.601Z,30.88
2023-04-16T22:21:38.182Z,23.83
2023-04-16T22:24:04.771Z,37.25
2023-04-16T22:26:31.114Z,37.50
2023-04-16T22:28:57.466Z,25.63
2023-04-16T22:31:23.828Z,27.90
2023-04-16T22:33:50.183Z,26.67
2023-04-16T22:36:16.528Z,14.02
2023-04-16T22:38:42.890Z,33.05
2023-04-16T22:41:09.244Z,29.50
2023-04-16T22:43:35.562Z,30.30
2023-04-16T22:46:05.721Z,30.80
2023-04-16T22:48:33.669Z,35.78
2023-04-16T22:51:00.007Z,28.42
2023-04-16T22:53:26.326Z,37.55
2023-04-16T22:58:18.991Z,29.38
2023-04-16T23:00:45.414Z,33.80
2023-04-16T23:03:11.776Z,30.92
2023-04-16T23:05:38.207Z,32.85
2023-04-16T23:08:04.685Z,24.35
2023-04-16T23:10:30.996Z,32.15
2023-04-16T23:12:57.308Z,32.13
2023-04-16T23:15:23.936Z,32.17
2023-04-16T23:17:50.368Z,37.67
2023-04-16T23:20:16.818Z,34.25
2023-04-16T23:22:43.150Z,24.50
2023-04-16T23:25:09.784Z,32.70
2023-04-16T23:27:36.590Z,31.45
2023-04-16T23:30:03.569Z,36.05
2023-04-16T23:32:29.939Z,34.78
2023-04-16T23:34:56.314Z,29.48
2023-04-16T23:37:22.669Z,23.30
2023-04-16T23:39:49.019Z,32.33
2023-04-16T23:42:15.326Z,25.48
2023-04-16T23:44:41.777Z,24.38
2023-04-16T23:47:08.144Z,23.23
2023-04-16T23:49:34.509Z,25.67
2023-04-16T23:52:00.874Z,28.00
2023-04-16T23:54:27.286Z,31.73
2023-04-16T23:56:53.700Z,26.85
2023-04-16T23:59:20.045Z,29.70
